Stations météo

Publicité
Karlsruhe/Baden-Baden, Allemagne (10722): Température de l'air & dewpoint: 10.01.2018 09:00:00 - 16.01.2018 09:00:00 (CET)Karlsruhe/Baden-Baden, Allemagne (10722): Vitesse du vent: 10.01.2018 09:00:00 - 16.01.2018 09:00:00 (CET)Karlsruhe/Baden-Baden, Allemagne (10722): Direction du vent: 10.01.2018 09:00:00 - 16.01.2018 09:00:00 (CET)Karlsruhe/Baden-Baden, Allemagne (10722): visibility: 10.01.2018 09:00:00 - 16.01.2018 09:00:00 (CET)
Date & Time tt [°C] td [°C] ff [km/h] ff [knt] dd vv [km]
16.01.2018 09:00:00 - - - - - -
16.01.2018 08:00:00 8,0 6,0 34 18 SSW 10
16.01.2018 07:00:00 7,0 6,0 34 18 SSW 7
16.01.2018 06:00:00 7,0 6,0 34 18 SSW 8
16.01.2018 05:00:00 8,0 5,0 34 18 SSW 10
16.01.2018 04:00:00 7,0 5,0 29 16 SSW 10
16.01.2018 03:00:00 7,0 5,0 21 11 SW 9
16.01.2018 02:00:00 7,0 5,0 24 13 SW 9
16.01.2018 01:00:00 8,0 5,0 37 20 SSW 10
16.01.2018 00:00:00 7,0 5,0 35 19 SSW 10
15.01.2018 23:00:00 7,0 4,0 42 23 SSW 10
15.01.2018 22:00:00 7,0 4,0 41 22 SSW 6
15.01.2018 21:00:00 7,0 4,0 44 24 SSW 7
15.01.2018 20:00:00 6,0 4,0 26 14 SSW 6
15.01.2018 19:00:00 7,0 3,0 24 13 SSW 10
15.01.2018 18:00:00 8,0 2,0 31 17 SSW 10
15.01.2018 17:00:00 8,0 2,0 34 18 SSW 10
15.01.2018 16:00:00 8,0 2,0 28 15 SSW 10
15.01.2018 15:00:00 5,0 1,0 22 12 SSW 10
15.01.2018 14:00:00 3,0 1,0 13 7 SSW 10
15.01.2018 13:00:00 2,0 1,0 4 2 SSW 10
15.01.2018 12:00:00 1,0 0,0 8 4 SSE 10
15.01.2018 11:00:00 0,0 -1,0 4 2 - 10
15.01.2018 10:00:00 0,0 -1,0 2 1 - 8
15.01.2018 09:00:00 -1,0 -2,0 4 2 SSE 6
15.01.2018 08:00:00 -1,0 -1,0 8 4 SSE 7
15.01.2018 07:00:00 -2,0 -2,0 8 4 S 10
15.01.2018 06:00:00 -2,0 -2,0 4 2 SSE 7
15.01.2018 05:00:00 -2,0 -2,0 0 0 N 7
15.01.2018 04:00:00 -3,0 -3,0 2 1 N 6
15.01.2018 03:00:00 -5,0 -5,0 4 2 - 7
15.01.2018 02:00:00 -3,0 -3,0 4 2 - 6
15.01.2018 01:00:00 -3,0 -3,0 2 1 - 3,5
15.01.2018 00:00:00 -3,0 -3,0 0 0 N 2,0
14.01.2018 23:00:00 -1,0 -2,0 0 0 N 2,4
14.01.2018 22:00:00 -1,0 -2,0 5 3 SSE 10
14.01.2018 21:00:00 -1,0 -2,0 5 3 SSE 10
14.01.2018 20:00:00 -1,0 -1,0 4 2 S 8
14.01.2018 19:00:00 -1,0 -2,0 4 2 S 10
14.01.2018 18:00:00 3,0 0,0 8 4 NE 10
14.01.2018 17:00:00 4,0 0,0 8 4 N 10
14.01.2018 16:00:00 5,0 1,0 4 2 - 10
14.01.2018 15:00:00 5,0 1,0 2 1 - 10
14.01.2018 14:00:00 4,0 2,0 4 2 - 8
14.01.2018 13:00:00 2,0 2,0 4 2 - 9
14.01.2018 12:00:00 1,0 1,0 4 2 - 8
14.01.2018 11:00:00 -1,0 -1,0 2 1 S 4,0
14.01.2018 10:00:00 -3,0 -3,0 4 2 SSW 0,3
14.01.2018 09:00:00 -4,0 -4,0 0 0 N 0,2
14.01.2018 08:00:00 -5,0 -5,0 0 0 N 0,3
14.01.2018 07:00:00 -4,0 -4,0 2 1 - 0,7
14.01.2018 06:00:00 -4,0 -4,0 0 0 N 4,0
14.01.2018 05:00:00 -4,0 -4,0 0 0 N 2,2
14.01.2018 04:00:00 -4,0 -4,0 0 0 N 4,4
14.01.2018 03:00:00 - - - - - -
14.01.2018 02:00:00 - - - - - -
14.01.2018 01:00:00 - - - - - -
14.01.2018 00:00:00 -2,0 -2,0 2 1 SSW 6
13.01.2018 23:00:00 -1,0 -2,0 0 0 N 6
13.01.2018 22:00:00 -1,0 -2,0 4 2 SE 8
13.01.2018 21:00:00 1,0 -1,0 0 0 N 10
13.01.2018 20:00:00 2,0 0,0 9 5 NNE 10
13.01.2018 19:00:00 3,0 1,0 9 5 NE 10
13.01.2018 18:00:00 4,0 1,0 9 5 NE 10
13.01.2018 17:00:00 5,0 2,0 11 6 NE 10
13.01.2018 16:00:00 5,0 2,0 13 7 NE 10
13.01.2018 15:00:00 5,0 2,0 11 6 NNE 10
13.01.2018 14:00:00 6,0 2,0 11 6 NE 10
13.01.2018 13:00:00 6,0 2,0 11 6 NE 10
13.01.2018 12:00:00 5,0 3,0 11 6 NE 10
13.01.2018 11:00:00 4,0 2,0 9 5 NNE 10
13.01.2018 10:00:00 2,0 2,0 9 5 NE 8
13.01.2018 09:00:00 -1,0 -1,0 0 0 N 6
13.01.2018 08:00:00 -1,0 -1,0 2 1 - 9
13.01.2018 07:00:00 -1,0 -1,0 5 3 NE 9
13.01.2018 06:00:00 -2,0 -2,0 5 3 NNE 7
13.01.2018 05:00:00 -2,0 -2,0 0 0 N 7
13.01.2018 04:00:00 -2,0 -2,0 4 2 - 7
13.01.2018 03:00:00 -1,0 -1,0 4 2 E 7
13.01.2018 02:00:00 -1,0 -1,0 4 2 ENE 7
13.01.2018 01:00:00 0,0 -1,0 4 2 E 6
13.01.2018 00:00:00 0,0 0,0 5 3 NNE 7
12.01.2018 23:00:00 0,0 -1,0 4 2 - 8
12.01.2018 22:00:00 1,0 1,0 4 2 N 9
12.01.2018 21:00:00 2,0 1,0 4 2 - 9
12.01.2018 20:00:00 3,0 1,0 8 4 ENE 10
12.01.2018 19:00:00 4,0 2,0 16 9 NNE 10
12.01.2018 18:00:00 5,0 3,0 16 9 N 10
12.01.2018 17:00:00 5,0 3,0 15 8 NNE 10
12.01.2018 16:00:00 6,0 3,0 15 8 NNE 10
12.01.2018 15:00:00 7,0 4,0 16 9 N 10
12.01.2018 14:00:00 7,0 4,0 15 8 NNE 10
12.01.2018 13:00:00 7,0 4,0 11 6 NNE 10
12.01.2018 12:00:00 6,0 3,0 9 5 N 10
12.01.2018 11:00:00 6,0 3,0 11 6 NE 10
12.01.2018 10:00:00 5,0 3,0 13 7 NNE 10
12.01.2018 09:00:00 3,0 2,0 16 9 N 10
12.01.2018 08:00:00 3,0 2,0 11 6 NNE 10
12.01.2018 07:00:00 3,0 2,0 15 8 NNE 10
12.01.2018 06:00:00 4,0 3,0 13 7 NNE 10
12.01.2018 05:00:00 5,0 3,0 13 7 NNE 10
12.01.2018 04:00:00 - - - - - -
12.01.2018 03:00:00 - - - - - -
12.01.2018 02:00:00 - - - - - -
12.01.2018 01:00:00 - - - - - -
12.01.2018 00:00:00 5,0 5,0 9 5 NNE 10
11.01.2018 23:00:00 5,0 5,0 5 3 NNE 10
11.01.2018 22:00:00 6,0 5,0 8 4 N 10
11.01.2018 21:00:00 6,0 4,0 8 4 N 10
11.01.2018 20:00:00 6,0 5,0 4 2 N 10
11.01.2018 19:00:00 7,0 5,0 4 2 N 10
11.01.2018 18:00:00 7,0 6,0 0 0 N 10
11.01.2018 17:00:00 8,0 6,0 0 0 N 10
11.01.2018 16:00:00 8,0 6,0 5 3 NNE 10
11.01.2018 15:00:00 9,0 6,0 4 2 - 10
11.01.2018 14:00:00 8,0 5,0 4 2 - 10
11.01.2018 13:00:00 8,0 5,0 4 2 - 10
11.01.2018 12:00:00 8,0 5,0 2 1 - 10
11.01.2018 11:00:00 6,0 5,0 2 1 - 10
11.01.2018 10:00:00 5,0 5,0 4 2 - 10
11.01.2018 09:00:00 4,0 4,0 8 4 NE 10
11.01.2018 08:00:00 5,0 4,0 4 2 NNW 10
11.01.2018 07:00:00 4,0 4,0 5 3 ENE 10
11.01.2018 06:00:00 4,0 4,0 4 2 NE 9
11.01.2018 05:00:00 4,0 4,0 4 2 - 5
11.01.2018 04:00:00 - - - - - -
11.01.2018 03:00:00 - - - - - -
11.01.2018 02:00:00 - - - - - -
11.01.2018 01:00:00 - - - - - -
11.01.2018 00:00:00 6,0 5,0 2 1 - 10
10.01.2018 23:00:00 6,0 5,0 5 3 S 10
10.01.2018 22:00:00 6,0 5,0 8 4 SW 10
10.01.2018 21:00:00 6,0 5,0 8 4 SSW 10
10.01.2018 20:00:00 7,0 5,0 15 8 S 10
10.01.2018 19:00:00 8,0 4,0 13 7 S 10
10.01.2018 18:00:00 8,0 4,0 9 5 SSW 10
10.01.2018 17:00:00 8,0 4,0 13 7 SW 10
10.01.2018 16:00:00 9,0 4,0 13 7 SSW 10
10.01.2018 15:00:00 8,0 5,0 9 5 SSW 10
10.01.2018 14:00:00 8,0 5,0 9 5 SSW 10
10.01.2018 13:00:00 8,0 5,0 9 5 WSW 10
10.01.2018 12:00:00 8,0 5,0 4 2 - 10
10.01.2018 11:00:00 6,0 6,0 4 2 - 10
10.01.2018 10:00:00 5,0 5,0 2 1 N 10
10.01.2018 09:00:00 4,0 4,0 2 1 NE 8

tt = Température de l'air
td = dewpoint
ff = Vitesse du vent
dd = Direction du vent
vv = visibility

stations d'obs. à proximité